Aeroporto :
LOGIN :

Iscrizione | Disclaimer

   EN    FR    IT 

 










Sommario :    VFR   VFR Marginale   IFR   IFR Intensivo   IFR Molto Intensivo
Visibilità : 
Base nubi : 
>= 8 km
>= 3000ft
5 / 8 km
1000 / 3000 ft
1500m / 5 km
500 / 1000 ft
800 / 1500m
200 / 500 ft
< 800m
< 200 ft
Simboli :   Temporali  Nebbia  Neve Forte  Precipitazioni Forti  Vento > 20 kt
SIGMETs :   Varie  Temporali  Ghiacco  Turbolenza  Onda orograficha  Ceneri Vulcaniche






- Altitudine del aeroporto : 626 ft
- Codice IATA : CRA


LRCV - Craiova

ULTIMO METAR :
  • 210430Z 30002KT 5000 BR NSC M06/M06 Q1040

METARs OBSOLETI :
  • 210400Z 00000KT 7000 NSC M06/M08 Q1040
  • 210330Z 00000KT 7000 NSC M06/M07 Q1041
  • 210300Z 00000KT 6000 NSC M07/M08 Q1041
  • 210230Z 07003KT 5000 BR NSC M07/M08 Q1041
  • 210200Z VRB02KT 5000 BR NSC M06/M08 Q1041

TAF TAF LRCV
Valido dal 21 a 03 ore il 21 a 12 ore UTC


210200Z 2103/2112 27006KT 5000 BR NSC
TEMPO 2103/2106 1500 BR BKN010
BECMG 2106/2108 9999 NSW



MetMap, La meteo Aeronautica in un colpo d'occhio ! - Copyright ORBIFLY Dicembre 2007 - Disclaimer

ORBIFLY MET'MAP TEAM :

Programmazione e sviluppo : Alexandra Zaïnal
Concezione : Baudouin d'Aumeries
Aiuto per la programmazione : Marc-Olivier Méhu
Supporto tecnico e logistico : Manuel Goepfert
Aiuto per la traduzione : Arnaldo La Scala

Contatto : metmap@orbifly.com




FONTI E CREDITI :

   NOAA